<?xml version="1.0" encoding="UTF-8" standalone="no" ?>
<gpx xmlns="http://www.topografix.com/GPX/1/1" xmlns:xsi="http://www.w3.org/2001/XMLSchema-instance" xsi:schemaLocation="http://www.topografix.com/GPX/1/1 http://www.topografix.com/GPX/1/1/gpx.xsd" version="1.1" creator="VisuGPX - https://www.visugpx.com">
  <metadata>
    <name>CABARIOT-15998405</name>
  </metadata>
  <trk>
    <name><![CDATA[CABARIOT-15998405]]></name>
    <trkseg>
      <trkpt lat="45.92826" lon="-0.86189">
        <ele>3</ele>
        <time>2023-01-10T14:05:38Z</time>
      </trkpt>
      <trkpt lat="45.92829" lon="-0.86187">
        <ele>2</ele>
        <time>2023-01-10T14:05:41Z</time>
      </trkpt>
      <trkpt lat="45.92856" lon="-0.86256">
        <ele>4</ele>
        <time>2023-01-10T14:06:25Z</time>
      </trkpt>
      <trkpt lat="45.92832" lon="-0.86293">
        <ele>4</ele>
        <time>2023-01-10T14:06:53Z</time>
      </trkpt>
      <trkpt lat="45.92761" lon="-0.8637">
        <ele>5</ele>
        <time>2023-01-10T14:08:04Z</time>
      </trkpt>
      <trkpt lat="45.92761" lon="-0.86371">
        <ele>5</ele>
        <time>2023-01-10T14:08:05Z</time>
      </trkpt>
      <trkpt lat="45.92772" lon="-0.8644">
        <ele>6</ele>
        <time>2023-01-10T14:08:44Z</time>
      </trkpt>
      <trkpt lat="45.92779" lon="-0.86464">
        <ele>6</ele>
        <time>2023-01-10T14:08:59Z</time>
      </trkpt>
      <trkpt lat="45.92822" lon="-0.8658">
        <ele>7</ele>
        <time>2023-01-10T14:10:12Z</time>
      </trkpt>
      <trkpt lat="45.92853" lon="-0.8664">
        <ele>7</ele>
        <time>2023-01-10T14:10:53Z</time>
      </trkpt>
      <trkpt lat="45.92866" lon="-0.86661">
        <ele>7</ele>
        <time>2023-01-10T14:11:09Z</time>
      </trkpt>
      <trkpt lat="45.92875" lon="-0.86672">
        <ele>8</ele>
        <time>2023-01-10T14:11:19Z</time>
      </trkpt>
      <trkpt lat="45.92897" lon="-0.86691">
        <ele>9</ele>
        <time>2023-01-10T14:11:39Z</time>
      </trkpt>
      <trkpt lat="45.9292" lon="-0.86717">
        <ele>10</ele>
        <time>2023-01-10T14:12:03Z</time>
      </trkpt>
      <trkpt lat="45.92935" lon="-0.86743">
        <ele>10</ele>
        <time>2023-01-10T14:12:21Z</time>
      </trkpt>
      <trkpt lat="45.92951" lon="-0.86784">
        <ele>9</ele>
        <time>2023-01-10T14:12:48Z</time>
      </trkpt>
      <trkpt lat="45.92954" lon="-0.86796">
        <ele>9</ele>
        <time>2023-01-10T14:12:55Z</time>
      </trkpt>
      <trkpt lat="45.92958" lon="-0.8683">
        <ele>8</ele>
        <time>2023-01-10T14:13:14Z</time>
      </trkpt>
      <trkpt lat="45.92958" lon="-0.86833">
        <ele>8</ele>
        <time>2023-01-10T14:13:15Z</time>
      </trkpt>
      <trkpt lat="45.92926" lon="-0.86835">
        <ele>7</ele>
        <time>2023-01-10T14:13:41Z</time>
      </trkpt>
      <trkpt lat="45.92908" lon="-0.86841">
        <ele>7</ele>
        <time>2023-01-10T14:13:56Z</time>
      </trkpt>
      <trkpt lat="45.92878" lon="-0.8686">
        <ele>5</ele>
        <time>2023-01-10T14:14:22Z</time>
      </trkpt>
      <trkpt lat="45.92861" lon="-0.8687">
        <ele>5</ele>
        <time>2023-01-10T14:14:37Z</time>
      </trkpt>
      <trkpt lat="45.9284" lon="-0.86878">
        <ele>4</ele>
        <time>2023-01-10T14:14:54Z</time>
      </trkpt>
      <trkpt lat="45.92759" lon="-0.86903">
        <ele>2</ele>
        <time>2023-01-10T14:16:01Z</time>
      </trkpt>
      <trkpt lat="45.92592" lon="-0.86944">
        <ele>1</ele>
        <time>2023-01-10T14:18:16Z</time>
      </trkpt>
      <trkpt lat="45.92333" lon="-0.87018">
        <ele>1</ele>
        <time>2023-01-10T14:21:48Z</time>
      </trkpt>
      <trkpt lat="45.92324" lon="-0.87023">
        <ele>1</ele>
        <time>2023-01-10T14:21:55Z</time>
      </trkpt>
      <trkpt lat="45.92302" lon="-0.8704">
        <ele>2</ele>
        <time>2023-01-10T14:22:15Z</time>
      </trkpt>
      <trkpt lat="45.92072" lon="-0.87113">
        <ele>3</ele>
        <time>2023-01-10T14:25:24Z</time>
      </trkpt>
      <trkpt lat="45.92057" lon="-0.8712">
        <ele>3</ele>
        <time>2023-01-10T14:25:37Z</time>
      </trkpt>
      <trkpt lat="45.91937" lon="-0.87202">
        <ele>1</ele>
        <time>2023-01-10T14:27:23Z</time>
      </trkpt>
      <trkpt lat="45.91929" lon="-0.87204">
        <ele>1</ele>
        <time>2023-01-10T14:27:30Z</time>
      </trkpt>
      <trkpt lat="45.91922" lon="-0.87203">
        <ele>1</ele>
        <time>2023-01-10T14:27:35Z</time>
      </trkpt>
      <trkpt lat="45.91911" lon="-0.87193">
        <ele>2</ele>
        <time>2023-01-10T14:27:46Z</time>
      </trkpt>
      <trkpt lat="45.91852" lon="-0.87133">
        <ele>3</ele>
        <time>2023-01-10T14:28:43Z</time>
      </trkpt>
      <trkpt lat="45.91334" lon="-0.86597">
        <ele>1</ele>
        <time>2023-01-10T14:37:14Z</time>
      </trkpt>
      <trkpt lat="45.91461" lon="-0.86432">
        <ele>2</ele>
        <time>2023-01-10T14:39:32Z</time>
      </trkpt>
      <trkpt lat="45.91664" lon="-0.86176">
        <ele>3</ele>
        <time>2023-01-10T14:43:08Z</time>
      </trkpt>
      <trkpt lat="45.91677" lon="-0.86163">
        <ele>3</ele>
        <time>2023-01-10T14:43:20Z</time>
      </trkpt>
      <trkpt lat="45.91686" lon="-0.86156">
        <ele>3</ele>
        <time>2023-01-10T14:43:29Z</time>
      </trkpt>
      <trkpt lat="45.91734" lon="-0.8613">
        <ele>2</ele>
        <time>2023-01-10T14:44:10Z</time>
      </trkpt>
      <trkpt lat="45.91811" lon="-0.86092">
        <ele>2</ele>
        <time>2023-01-10T14:45:15Z</time>
      </trkpt>
      <trkpt lat="45.91821" lon="-0.86084">
        <ele>2</ele>
        <time>2023-01-10T14:45:24Z</time>
      </trkpt>
      <trkpt lat="45.91839" lon="-0.86062">
        <ele>2</ele>
        <time>2023-01-10T14:45:43Z</time>
      </trkpt>
      <trkpt lat="45.91865" lon="-0.86023">
        <ele>2</ele>
        <time>2023-01-10T14:46:13Z</time>
      </trkpt>
      <trkpt lat="45.91881" lon="-0.85991">
        <ele>2</ele>
        <time>2023-01-10T14:46:35Z</time>
      </trkpt>
      <trkpt lat="45.91881" lon="-0.8599">
        <ele>2</ele>
        <time>2023-01-10T14:46:36Z</time>
      </trkpt>
      <trkpt lat="45.91828" lon="-0.85975">
        <ele>3</ele>
        <time>2023-01-10T14:47:19Z</time>
      </trkpt>
      <trkpt lat="45.91781" lon="-0.85968">
        <ele>3</ele>
        <time>2023-01-10T14:47:57Z</time>
      </trkpt>
      <trkpt lat="45.91735" lon="-0.85964">
        <ele>2</ele>
        <time>2023-01-10T14:48:34Z</time>
      </trkpt>
      <trkpt lat="45.91687" lon="-0.85965">
        <ele>2</ele>
        <time>2023-01-10T14:49:12Z</time>
      </trkpt>
      <trkpt lat="45.91637" lon="-0.85972">
        <ele>2</ele>
        <time>2023-01-10T14:49:52Z</time>
      </trkpt>
      <trkpt lat="45.91581" lon="-0.85986">
        <ele>2</ele>
        <time>2023-01-10T14:50:38Z</time>
      </trkpt>
      <trkpt lat="45.91511" lon="-0.86015">
        <ele>3</ele>
        <time>2023-01-10T14:51:36Z</time>
      </trkpt>
      <trkpt lat="45.91442" lon="-0.86054">
        <ele>3</ele>
        <time>2023-01-10T14:52:35Z</time>
      </trkpt>
      <trkpt lat="45.91378" lon="-0.86105">
        <ele>2</ele>
        <time>2023-01-10T14:53:34Z</time>
      </trkpt>
      <trkpt lat="45.91318" lon="-0.86163">
        <ele>2</ele>
        <time>2023-01-10T14:54:32Z</time>
      </trkpt>
      <trkpt lat="45.91252" lon="-0.86246">
        <ele>2</ele>
        <time>2023-01-10T14:55:42Z</time>
      </trkpt>
      <trkpt lat="45.91146" lon="-0.86398">
        <ele>2</ele>
        <time>2023-01-10T14:57:42Z</time>
      </trkpt>
      <trkpt lat="45.91142" lon="-0.86405">
        <ele>2</ele>
        <time>2023-01-10T14:57:47Z</time>
      </trkpt>
      <trkpt lat="45.91007" lon="-0.86601">
        <ele>2</ele>
        <time>2023-01-10T15:00:21Z</time>
      </trkpt>
      <trkpt lat="45.91005" lon="-0.86601">
        <ele>2</ele>
        <time>2023-01-10T15:00:22Z</time>
      </trkpt>
      <trkpt lat="45.90985" lon="-0.86595">
        <ele>2</ele>
        <time>2023-01-10T15:00:39Z</time>
      </trkpt>
      <trkpt lat="45.90982" lon="-0.8659">
        <ele>2</ele>
        <time>2023-01-10T15:00:42Z</time>
      </trkpt>
      <trkpt lat="45.9098" lon="-0.86582">
        <ele>2</ele>
        <time>2023-01-10T15:00:47Z</time>
      </trkpt>
      <trkpt lat="45.90999" lon="-0.86566">
        <ele>2</ele>
        <time>2023-01-10T15:01:05Z</time>
      </trkpt>
      <trkpt lat="45.91089" lon="-0.86438">
        <ele>2</ele>
        <time>2023-01-10T15:02:46Z</time>
      </trkpt>
      <trkpt lat="45.91126" lon="-0.86389">
        <ele>2</ele>
        <time>2023-01-10T15:03:26Z</time>
      </trkpt>
      <trkpt lat="45.91132" lon="-0.86386">
        <ele>2</ele>
        <time>2023-01-10T15:03:31Z</time>
      </trkpt>
      <trkpt lat="45.9116" lon="-0.86344">
        <ele>3</ele>
        <time>2023-01-10T15:04:04Z</time>
      </trkpt>
      <trkpt lat="45.91247" lon="-0.86223">
        <ele>2</ele>
        <time>2023-01-10T15:05:41Z</time>
      </trkpt>
      <trkpt lat="45.91158" lon="-0.86092">
        <ele>2</ele>
        <time>2023-01-10T15:07:23Z</time>
      </trkpt>
      <trkpt lat="45.91088" lon="-0.85969">
        <ele>1</ele>
        <time>2023-01-10T15:08:51Z</time>
      </trkpt>
      <trkpt lat="45.90942" lon="-0.85796">
        <ele>2</ele>
        <time>2023-01-10T15:11:23Z</time>
      </trkpt>
      <trkpt lat="45.90937" lon="-0.85791">
        <ele>3</ele>
        <time>2023-01-10T15:11:28Z</time>
      </trkpt>
      <trkpt lat="45.90929" lon="-0.85771">
        <ele>3</ele>
        <time>2023-01-10T15:11:41Z</time>
      </trkpt>
      <trkpt lat="45.90855" lon="-0.8543">
        <ele>1</ele>
        <time>2023-01-10T15:15:00Z</time>
      </trkpt>
      <trkpt lat="45.90856" lon="-0.85412">
        <ele>1</ele>
        <time>2023-01-10T15:15:10Z</time>
      </trkpt>
      <trkpt lat="45.9088" lon="-0.85407">
        <ele>2</ele>
        <time>2023-01-10T15:15:29Z</time>
      </trkpt>
      <trkpt lat="45.91008" lon="-0.85347">
        <ele>3</ele>
        <time>2023-01-10T15:17:17Z</time>
      </trkpt>
      <trkpt lat="45.91027" lon="-0.85335">
        <ele>3</ele>
        <time>2023-01-10T15:17:33Z</time>
      </trkpt>
      <trkpt lat="45.9107" lon="-0.85298">
        <ele>3</ele>
        <time>2023-01-10T15:18:14Z</time>
      </trkpt>
      <trkpt lat="45.91178" lon="-0.85186">
        <ele>2</ele>
        <time>2023-01-10T15:20:00Z</time>
      </trkpt>
      <trkpt lat="45.91182" lon="-0.85182">
        <ele>2</ele>
        <time>2023-01-10T15:20:04Z</time>
      </trkpt>
      <trkpt lat="45.91195" lon="-0.85166">
        <ele>2</ele>
        <time>2023-01-10T15:20:18Z</time>
      </trkpt>
      <trkpt lat="45.91201" lon="-0.85154">
        <ele>2</ele>
        <time>2023-01-10T15:20:26Z</time>
      </trkpt>
      <trkpt lat="45.91238" lon="-0.85074">
        <ele>2</ele>
        <time>2023-01-10T15:21:20Z</time>
      </trkpt>
      <trkpt lat="45.91263" lon="-0.85011">
        <ele>3</ele>
        <time>2023-01-10T15:22:00Z</time>
      </trkpt>
      <trkpt lat="45.91271" lon="-0.85001">
        <ele>3</ele>
        <time>2023-01-10T15:22:08Z</time>
      </trkpt>
      <trkpt lat="45.91361" lon="-0.84943">
        <ele>3</ele>
        <time>2023-01-10T15:23:27Z</time>
      </trkpt>
      <trkpt lat="45.91403" lon="-0.84913">
        <ele>3</ele>
        <time>2023-01-10T15:24:05Z</time>
      </trkpt>
      <trkpt lat="45.91433" lon="-0.84901">
        <ele>4</ele>
        <time>2023-01-10T15:24:30Z</time>
      </trkpt>
      <trkpt lat="45.91502" lon="-0.84883">
        <ele>4</ele>
        <time>2023-01-10T15:25:26Z</time>
      </trkpt>
      <trkpt lat="45.91679" lon="-0.84884">
        <ele>4</ele>
        <time>2023-01-10T15:27:48Z</time>
      </trkpt>
      <trkpt lat="45.91748" lon="-0.84935">
        <ele>5</ele>
        <time>2023-01-10T15:28:50Z</time>
      </trkpt>
      <trkpt lat="45.91768" lon="-0.84955">
        <ele>5</ele>
        <time>2023-01-10T15:29:09Z</time>
      </trkpt>
      <trkpt lat="45.91811" lon="-0.84959">
        <ele>6</ele>
        <time>2023-01-10T15:29:44Z</time>
      </trkpt>
      <trkpt lat="45.91821" lon="-0.84957">
        <ele>6</ele>
        <time>2023-01-10T15:29:52Z</time>
      </trkpt>
      <trkpt lat="45.91824" lon="-0.84965">
        <ele>6</ele>
        <time>2023-01-10T15:29:57Z</time>
      </trkpt>
      <trkpt lat="45.91822" lon="-0.85011">
        <ele>6</ele>
        <time>2023-01-10T15:30:23Z</time>
      </trkpt>
      <trkpt lat="45.91826" lon="-0.85018">
        <ele>6</ele>
        <time>2023-01-10T15:30:28Z</time>
      </trkpt>
      <trkpt lat="45.92027" lon="-0.85155">
        <ele>9</ele>
        <time>2023-01-10T15:33:26Z</time>
      </trkpt>
      <trkpt lat="45.92069" lon="-0.85185">
        <ele>10</ele>
        <time>2023-01-10T15:34:03Z</time>
      </trkpt>
      <trkpt lat="45.9217" lon="-0.85277">
        <ele>12</ele>
        <time>2023-01-10T15:35:39Z</time>
      </trkpt>
      <trkpt lat="45.92273" lon="-0.85423">
        <ele>9</ele>
        <time>2023-01-10T15:37:35Z</time>
      </trkpt>
      <trkpt lat="45.92305" lon="-0.85478">
        <ele>8</ele>
        <time>2023-01-10T15:38:15Z</time>
      </trkpt>
      <trkpt lat="45.92315" lon="-0.85492">
        <ele>7</ele>
        <time>2023-01-10T15:38:26Z</time>
      </trkpt>
      <trkpt lat="45.92353" lon="-0.85477">
        <ele>8</ele>
        <time>2023-01-10T15:38:58Z</time>
      </trkpt>
      <trkpt lat="45.92367" lon="-0.8547">
        <ele>8</ele>
        <time>2023-01-10T15:39:10Z</time>
      </trkpt>
      <trkpt lat="45.92384" lon="-0.85453">
        <ele>8</ele>
        <time>2023-01-10T15:39:26Z</time>
      </trkpt>
      <trkpt lat="45.9243" lon="-0.85399">
        <ele>9</ele>
        <time>2023-01-10T15:40:14Z</time>
      </trkpt>
      <trkpt lat="45.92464" lon="-0.85461">
        <ele>8</ele>
        <time>2023-01-10T15:40:58Z</time>
      </trkpt>
      <trkpt lat="45.92467" lon="-0.85464">
        <ele>8</ele>
        <time>2023-01-10T15:41:01Z</time>
      </trkpt>
      <trkpt lat="45.92475" lon="-0.85465">
        <ele>8</ele>
        <time>2023-01-10T15:41:07Z</time>
      </trkpt>
      <trkpt lat="45.92502" lon="-0.85435">
        <ele>9</ele>
        <time>2023-01-10T15:41:34Z</time>
      </trkpt>
      <trkpt lat="45.92558" lon="-0.85532">
        <ele>7</ele>
        <time>2023-01-10T15:42:45Z</time>
      </trkpt>
      <trkpt lat="45.92559" lon="-0.85535">
        <ele>7</ele>
        <time>2023-01-10T15:42:46Z</time>
      </trkpt>
      <trkpt lat="45.92556" lon="-0.85543">
        <ele>7</ele>
        <time>2023-01-10T15:42:51Z</time>
      </trkpt>
      <trkpt lat="45.92558" lon="-0.8555">
        <ele>7</ele>
        <time>2023-01-10T15:42:56Z</time>
      </trkpt>
      <trkpt lat="45.9259" lon="-0.85579">
        <ele>8</ele>
        <time>2023-01-10T15:43:26Z</time>
      </trkpt>
      <trkpt lat="45.92611" lon="-0.85597">
        <ele>9</ele>
        <time>2023-01-10T15:43:46Z</time>
      </trkpt>
      <trkpt lat="45.92634" lon="-0.85627">
        <ele>11</ele>
        <time>2023-01-10T15:44:10Z</time>
      </trkpt>
      <trkpt lat="45.92568" lon="-0.85714">
        <ele>10</ele>
        <time>2023-01-10T15:45:22Z</time>
      </trkpt>
      <trkpt lat="45.92544" lon="-0.85737">
        <ele>9</ele>
        <time>2023-01-10T15:45:45Z</time>
      </trkpt>
      <trkpt lat="45.92484" lon="-0.85778">
        <ele>9</ele>
        <time>2023-01-10T15:46:38Z</time>
      </trkpt>
      <trkpt lat="45.92439" lon="-0.85813">
        <ele>10</ele>
        <time>2023-01-10T15:47:19Z</time>
      </trkpt>
      <trkpt lat="45.92397" lon="-0.85864">
        <ele>9</ele>
        <time>2023-01-10T15:48:03Z</time>
      </trkpt>
      <trkpt lat="45.92386" lon="-0.85852">
        <ele>8</ele>
        <time>2023-01-10T15:48:14Z</time>
      </trkpt>
      <trkpt lat="45.92373" lon="-0.85843">
        <ele>7</ele>
        <time>2023-01-10T15:48:26Z</time>
      </trkpt>
      <trkpt lat="45.92368" lon="-0.85842">
        <ele>7</ele>
        <time>2023-01-10T15:48:30Z</time>
      </trkpt>
      <trkpt lat="45.92356" lon="-0.8585">
        <ele>7</ele>
        <time>2023-01-10T15:48:41Z</time>
      </trkpt>
      <trkpt lat="45.92346" lon="-0.85865">
        <ele>6</ele>
        <time>2023-01-10T15:48:52Z</time>
      </trkpt>
      <trkpt lat="45.92318" lon="-0.85907">
        <ele>6</ele>
        <time>2023-01-10T15:49:25Z</time>
      </trkpt>
      <trkpt lat="45.92317" lon="-0.85912">
        <ele>6</ele>
        <time>2023-01-10T15:49:27Z</time>
      </trkpt>
      <trkpt lat="45.92319" lon="-0.85955">
        <ele>7</ele>
        <time>2023-01-10T15:49:51Z</time>
      </trkpt>
      <trkpt lat="45.92318" lon="-0.85978">
        <ele>7</ele>
        <time>2023-01-10T15:50:04Z</time>
      </trkpt>
      <trkpt lat="45.92315" lon="-0.85997">
        <ele>7</ele>
        <time>2023-01-10T15:50:15Z</time>
      </trkpt>
      <trkpt lat="45.92295" lon="-0.86037">
        <ele>6</ele>
        <time>2023-01-10T15:50:43Z</time>
      </trkpt>
      <trkpt lat="45.9231" lon="-0.86066">
        <ele>7</ele>
        <time>2023-01-10T15:51:03Z</time>
      </trkpt>
      <trkpt lat="45.92328" lon="-0.86089">
        <ele>8</ele>
        <time>2023-01-10T15:51:22Z</time>
      </trkpt>
      <trkpt lat="45.9234" lon="-0.86113">
        <ele>7</ele>
        <time>2023-01-10T15:51:38Z</time>
      </trkpt>
      <trkpt lat="45.92385" lon="-0.86064">
        <ele>8</ele>
        <time>2023-01-10T15:52:24Z</time>
      </trkpt>
      <trkpt lat="45.92391" lon="-0.86061">
        <ele>7</ele>
        <time>2023-01-10T15:52:29Z</time>
      </trkpt>
      <trkpt lat="45.92393" lon="-0.86062">
        <ele>7</ele>
        <time>2023-01-10T15:52:30Z</time>
      </trkpt>
      <trkpt lat="45.92468" lon="-0.862">
        <ele>5</ele>
        <time>2023-01-10T15:54:08Z</time>
      </trkpt>
      <trkpt lat="45.92475" lon="-0.86213">
        <ele>4</ele>
        <time>2023-01-10T15:54:17Z</time>
      </trkpt>
      <trkpt lat="45.92478" lon="-0.86215">
        <ele>4</ele>
        <time>2023-01-10T15:54:20Z</time>
      </trkpt>
      <trkpt lat="45.92508" lon="-0.86259">
        <ele>3</ele>
        <time>2023-01-10T15:54:54Z</time>
      </trkpt>
      <trkpt lat="45.92547" lon="-0.86306">
        <ele>2</ele>
        <time>2023-01-10T15:55:35Z</time>
      </trkpt>
      <trkpt lat="45.92555" lon="-0.86314">
        <ele>2</ele>
        <time>2023-01-10T15:55:43Z</time>
      </trkpt>
      <trkpt lat="45.92573" lon="-0.86338">
        <ele>3</ele>
        <time>2023-01-10T15:56:02Z</time>
      </trkpt>
      <trkpt lat="45.92591" lon="-0.86355">
        <ele>3</ele>
        <time>2023-01-10T15:56:20Z</time>
      </trkpt>
      <trkpt lat="45.926" lon="-0.86368">
        <ele>2</ele>
        <time>2023-01-10T15:56:30Z</time>
      </trkpt>
      <trkpt lat="45.92611" lon="-0.86378">
        <ele>2</ele>
        <time>2023-01-10T15:56:40Z</time>
      </trkpt>
      <trkpt lat="45.92625" lon="-0.86382">
        <ele>2</ele>
        <time>2023-01-10T15:56:52Z</time>
      </trkpt>
      <trkpt lat="45.9263" lon="-0.86385">
        <ele>2</ele>
        <time>2023-01-10T15:56:56Z</time>
      </trkpt>
      <trkpt lat="45.92636" lon="-0.86385">
        <ele>2</ele>
        <time>2023-01-10T15:57:01Z</time>
      </trkpt>
      <trkpt lat="45.9264" lon="-0.86375">
        <ele>2</ele>
        <time>2023-01-10T15:57:07Z</time>
      </trkpt>
      <trkpt lat="45.92642" lon="-0.86348">
        <ele>2</ele>
        <time>2023-01-10T15:57:22Z</time>
      </trkpt>
      <trkpt lat="45.9265" lon="-0.8631">
        <ele>2</ele>
        <time>2023-01-10T15:57:44Z</time>
      </trkpt>
      <trkpt lat="45.92657" lon="-0.86302">
        <ele>2</ele>
        <time>2023-01-10T15:57:52Z</time>
      </trkpt>
      <trkpt lat="45.92671" lon="-0.86301">
        <ele>2</ele>
        <time>2023-01-10T15:58:03Z</time>
      </trkpt>
      <trkpt lat="45.92684" lon="-0.86296">
        <ele>2</ele>
        <time>2023-01-10T15:58:14Z</time>
      </trkpt>
      <trkpt lat="45.92695" lon="-0.86285">
        <ele>2</ele>
        <time>2023-01-10T15:58:24Z</time>
      </trkpt>
      <trkpt lat="45.927" lon="-0.86278">
        <ele>3</ele>
        <time>2023-01-10T15:58:30Z</time>
      </trkpt>
      <trkpt lat="45.92711" lon="-0.8624">
        <ele>2</ele>
        <time>2023-01-10T15:58:53Z</time>
      </trkpt>
      <trkpt lat="45.92712" lon="-0.86228">
        <ele>2</ele>
        <time>2023-01-10T15:59:00Z</time>
      </trkpt>
      <trkpt lat="45.92708" lon="-0.86197">
        <ele>2</ele>
        <time>2023-01-10T15:59:17Z</time>
      </trkpt>
      <trkpt lat="45.9271" lon="-0.86186">
        <ele>2</ele>
        <time>2023-01-10T15:59:23Z</time>
      </trkpt>
      <trkpt lat="45.92717" lon="-0.86167">
        <ele>2</ele>
        <time>2023-01-10T15:59:35Z</time>
      </trkpt>
      <trkpt lat="45.92721" lon="-0.86161">
        <ele>2</ele>
        <time>2023-01-10T15:59:40Z</time>
      </trkpt>
      <trkpt lat="45.92726" lon="-0.86159">
        <ele>2</ele>
        <time>2023-01-10T15:59:44Z</time>
      </trkpt>
      <trkpt lat="45.92735" lon="-0.8616">
        <ele>2</ele>
        <time>2023-01-10T15:59:51Z</time>
      </trkpt>
      <trkpt lat="45.92736" lon="-0.86167">
        <ele>2</ele>
        <time>2023-01-10T15:59:55Z</time>
      </trkpt>
      <trkpt lat="45.9274" lon="-0.86179">
        <ele>2</ele>
        <time>2023-01-10T16:00:03Z</time>
      </trkpt>
      <trkpt lat="45.92746" lon="-0.86188">
        <ele>2</ele>
        <time>2023-01-10T16:00:10Z</time>
      </trkpt>
      <trkpt lat="45.92766" lon="-0.86198">
        <ele>2</ele>
        <time>2023-01-10T16:00:27Z</time>
      </trkpt>
      <trkpt lat="45.9277" lon="-0.86196">
        <ele>2</ele>
        <time>2023-01-10T16:00:30Z</time>
      </trkpt>
      <trkpt lat="45.92781" lon="-0.86201">
        <ele>3</ele>
        <time>2023-01-10T16:00:39Z</time>
      </trkpt>
      <trkpt lat="45.92798" lon="-0.86215">
        <ele>3</ele>
        <time>2023-01-10T16:00:55Z</time>
      </trkpt>
      <trkpt lat="45.92801" lon="-0.8621">
        <ele>3</ele>
        <time>2023-01-10T16:00:59Z</time>
      </trkpt>
      <trkpt lat="45.92824" lon="-0.8619">
        <ele>3</ele>
        <time>2023-01-10T16:01:20Z</time>
      </trkpt>
      <trkpt lat="45.92826" lon="-0.86189">
        <ele>3</ele>
        <time>2023-01-10T16:01:22Z</time>
      </trkpt>
    </trkseg>
  </trk>
</gpx>